TimeEDT,TemperatureF,Dew PointF,Humidity,Sea Level PressureIn,VisibilityMPH,Wind Direction,Wind SpeedMPH,Gust SpeedMPH,PrecipitationIn,Events,Conditions,WindDirDegrees,DateUTC
12:54 AM,73.0,64.9,76,29.93,10.0,South,9.2,-,N/A,,Mostly Cloudy,180,2013-08-08 04:54:00
1:54 AM,72.0,64.9,78,29.92,10.0,South,10.4,-,N/A,,Mostly Cloudy,180,2013-08-08 05:54:00
2:54 AM,72.0,64.0,76,29.93,10.0,SSW,6.9,-,N/A,,Mostly Cloudy,210,2013-08-08 06:54:00
3:54 AM,71.1,64.0,78,29.93,10.0,SSW,8.1,-,N/A,,Mostly Cloudy,200,2013-08-08 07:54:00
4:54 AM,71.1,63.0,75,29.92,10.0,SSW,5.8,-,N/A,,Mostly Cloudy,200,2013-08-08 08:54:00
5:54 AM,71.1,63.0,75,29.94,10.0,SSW,4.6,-,N/A,,Overcast,210,2013-08-08 09:54:00
6:54 AM,70.0,64.9,84,29.95,10.0,WSW,5.8,-,0.00,Rain,Light Rain,240,2013-08-08 10:54:00
7:54 AM,72.0,66.0,81,29.96,10.0,SSE,3.5,-,0.00,,Overcast,150,2013-08-08 11:54:00
8:54 AM,75.0,66.9,76,29.97,10.0,East,3.5,-,N/A,,Mostly Cloudy,80,2013-08-08 12:54:00
9:54 AM,77.0,66.9,71,29.96,10.0,Variable,3.5,-,N/A,,Scattered Clouds,0,2013-08-08 13:54:00
10:54 AM,79.0,66.9,66,29.94,10.0,SE,4.6,-,N/A,,Mostly Cloudy,140,2013-08-08 14:54:00
11:54 AM,80.1,64.9,60,29.93,10.0,Variable,3.5,-,N/A,,Scattered Clouds,0,2013-08-08 15:54:00
12:54 PM,84.0,66.9,56,29.94,10.0,SW,5.8,-,N/A,,Mostly Cloudy,220,2013-08-08 16:54:00
1:54 PM,84.9,66.9,55,29.93,10.0,Calm,Calm,-,N/A,,Mostly Cloudy,0,2013-08-08 17:54:00
2:54 PM,86.0,68.0,55,29.93,10.0,WSW,9.2,-,N/A,,Overcast,240,2013-08-08 18:54:00
3:54 PM,87.1,66.9,51,29.91,10.0,Calm,Calm,-,N/A,,Overcast,0,2013-08-08 19:54:00
4:54 PM,82.9,70.0,65,29.90,10.0,NE,6.9,-,N/A,,Overcast,50,2013-08-08 20:54:00
5:54 PM,81.0,70.0,69,29.91,10.0,Calm,Calm,-,N/A,,Overcast,0,2013-08-08 21:54:00
6:54 PM,79.0,70.0,74,29.91,10.0,North,3.5,-,0.00,Rain,Light Rain,10,2013-08-08 22:54:00
7:54 PM,75.0,73.0,94,29.90,6.0,NNE,3.5,-,0.14,Rain,Light Rain,20,2013-08-08 23:54:00
8:54 PM,75.0,72.0,90,29.92,10.0,Calm,Calm,-,0.00,,Overcast,0,2013-08-09 00:54:00
9:54 PM,73.9,72.0,93,29.92,10.0,SSW,3.5,-,N/A,,Overcast,210,2013-08-09 01:54:00
10:26 PM,73.4,71.6,94,29.93,10.0,SSW,4.6,-,N/A,,Mostly Cloudy,200,2013-08-09 02:26:00
10:54 PM,73.9,69.1,85,29.91,10.0,South,5.8,-,N/A,,Overcast,180,2013-08-09 02:54:00
11:54 PM,73.0,69.1,87,29.91,10.0,West,3.5,-,N/A,,Overcast,260,2013-08-09 03:54:00